Time;durP1;ratioP1;P1;durP2;ratioP2;P2;SDS_P1;SDS_P2;PMS_P1;PMS_P2;Temp;Humidity;BMP_temperature;BMP_pressure;BME280_temperature;BME280_humidity;BME280_pressure;Samples;Min_cycle;Max_cycle;Signal;HPM_P1;HPM_P2
2023/07/16 00:01:45;;;;;;;4.50;2.17;;;17.30;99.90;;;;;;4936585;28;20216;-85
2023/07/16 00:04:11;;;;;;;8.47;2.10;;;17.30;99.90;;;;;;4968597;28;20706;-85
2023/07/16 00:06:37;;;;;;;11.03;2.37;;;17.30;99.90;;;;;;4968512;28;20359;-85
2023/07/16 00:09:03;;;;;;;12.97;3.03;;;17.30;99.90;;;;;;4968969;28;20200;-84
2023/07/16 00:11:29;;;;;;;3.83;2.97;;;17.20;99.90;;;;;;4953140;28;20620;-84
2023/07/16 00:13:54;;;;;;;4.40;3.90;;;17.20;99.90;;;;;;4952758;28;20217;-85
2023/07/16 00:16:21;;;;;;;5.47;2.40;;;17.10;99.90;;;;;;4967536;28;20228;-85
2023/07/16 00:18:47;;;;;;;7.90;2.37;;;17.10;99.90;;;;;;4984821;28;20299;-84
2023/07/16 00:21:12;;;;;;;7.80;2.30;;;17.10;99.90;;;;;;4936616;28;20336;-85
2023/07/16 00:23:38;;;;;;;7.13;2.37;;;17.10;99.90;;;;;;4937377;28;20212;-86
2023/07/16 00:26:04;;;;;;;6.10;2.90;;;17.10;99.90;;;;;;4952545;28;20653;-84
2023/07/16 00:28:30;;;;;;;5.57;2.43;;;17.10;99.90;;;;;;4952425;28;20228;-85
2023/07/16 00:30:56;;;;;;;11.57;3.10;;;17.10;99.90;;;;;;4955836;28;20223;-85
2023/07/16 00:33:22;;;;;;;3.90;2.10;;;17.10;99.90;;;;;;4946905;28;20236;-84
2023/07/16 00:35:51;;;;;;;3.67;1.63;;;17.00;99.90;;;;;;4991856;28;20464;-85
2023/07/16 00:38:20;;;;;;;2.83;2.10;;;17.00;99.90;;;;;;4975278;28;20631;-85
2023/07/16 00:40:46;;;;;;;2.40;1.63;;;17.00;99.90;;;;;;4959315;28;20303;-85
2023/07/16 00:43:13;;;;;;;11.57;2.23;;;17.10;99.90;;;;;;4992393;28;20228;-85
2023/07/16 00:45:40;;;;;;;5.63;2.97;;;17.20;99.90;;;;;;4992641;28;20257;-84
2023/07/16 00:48:07;;;;;;;5.63;2.20;;;17.20;99.90;;;;;;4992723;28;20183;-85
2023/07/16 00:50:39;;;;;;;6.03;3.07;;;17.20;99.90;;;;;;4993003;28;20788;-85
2023/07/16 00:53:08;;;;;;;6.00;1.80;;;17.20;99.90;;;;;;4975494;28;20690;-85
2023/07/16 00:55:36;;;;;;;5.07;2.50;;;17.20;99.90;;;;;;4990776;28;20670;-85
2023/07/16 00:58:05;;;;;;;4.70;1.73;;;17.20;99.90;;;;;;4992511;28;20243;-86
2023/07/16 01:00:37;;;;;;;5.57;3.67;;;17.20;99.90;;;;;;4974840;28;20227;-84
2023/07/16 01:03:04;;;;;;;5.50;2.77;;;17.30;99.90;;;;;;4975257;28;20263;-84
2023/07/16 01:05:42;;;;;;;4.60;1.67;;;17.30;99.90;;;;;;4958959;28;20223;-85
2023/07/16 01:08:10;;;;;;;4.60;2.50;;;17.30;99.90;;;;;;4973692;28;20227;-86
2023/07/16 01:10:41;;;;;;;6.27;2.27;;;17.30;99.90;;;;;;4974445;28;20224;-86
2023/07/16 01:13:07;;;;;;;9.70;2.23;;;17.20;99.90;;;;;;4991081;28;20215;-85
2023/07/16 01:15:33;;;;;;;6.50;2.67;;;17.20;99.90;;;;;;4974458;28;20222;-85
2023/07/16 01:17:58;;;;;;;3.13;2.27;;;17.20;99.90;;;;;;4975406;28;20586;-85
2023/07/16 01:20:25;;;;;;;9.40;2.63;;;17.20;99.90;;;;;;4974676;28;20224;-86
2023/07/16 01:23:19;;;;;;;9.30;2.43;;;17.20;99.90;;;;;;4991301;28;20220;-85
2023/07/16 01:26:19;;;;;;;11.43;2.73;;;17.20;99.90;;;;;;4973897;28;20232;-85
2023/07/16 01:29:14;;;;;;;6.17;2.60;;;17.20;99.90;;;;;;4974192;28;20212;-85
2023/07/16 01:31:41;;;;;;;4.67;2.87;;;17.20;99.90;;;;;;4990013;28;20448;-85
2023/07/16 01:34:08;;;;;;;6.83;3.07;;;17.20;99.90;;;;;;4991170;28;20318;-85
2023/07/16 01:36:35;;;;;;;8.70;3.30;;;17.20;99.90;;;;;;4958217;28;20306;-85
2023/07/16 01:39:01;;;;;;;3.17;1.93;;;17.30;99.90;;;;;;4958482;28;20705;-85
2023/07/16 01:41:27;;;;;;;5.23;3.33;;;17.40;99.90;;;;;;4990710;28;20227;-85
2023/07/16 01:43:53;;;;;;;6.10;2.90;;;17.40;99.90;;;;;;4957715;28;20757;-85
2023/07/16 01:46:19;;;;;;;3.53;2.30;;;17.50;99.90;;;;;;4991341;28;20236;-85
2023/07/16 01:48:45;;;;;;;5.43;2.47;;;17.50;99.90;;;;;;4974534;28;20231;-85
2023/07/16 01:51:13;;;;;;;10.37;2.53;;;17.50;99.90;;;;;;4974189;28;20556;-85
2023/07/16 01:53:40;;;;;;;8.63;2.23;;;17.50;99.90;;;;;;4974950;28;20180;-85
2023/07/16 01:56:06;;;;;;;4.77;2.30;;;17.50;99.90;;;;;;4958158;28;20299;-84
2023/07/16 01:58:31;;;;;;;4.17;2.73;;;17.60;99.90;;;;;;4989457;28;20738;-85
2023/07/16 02:00:57;;;;;;;3.93;2.33;;;17.60;99.90;;;;;;4988805;28;20808;-84
2023/07/16 02:03:23;;;;;;;12.57;2.80;;;17.70;99.90;;;;;;4990312;28;20307;-85
2023/07/16 02:05:49;;;;;;;8.87;2.47;;;17.70;99.90;;;;;;4990214;28;20408;-85
2023/07/16 02:08:17;;;;;;;6.20;1.93;;;17.80;99.90;;;;;;4990350;28;20685;-86
2023/07/16 02:10:42;;;;;;;7.10;2.30;;;17.80;99.90;;;;;;4973216;28;20887;-85
2023/07/16 02:13:08;;;;;;;9.37;2.00;;;17.80;99.90;;;;;;4957573;28;20220;-85
2023/07/16 02:15:34;;;;;;;4.70;2.27;;;17.80;99.90;;;;;;4989420;28;20220;-85
2023/07/16 02:18:00;;;;;;;4.03;1.80;;;17.80;99.90;;;;;;4974299;28;20709;-87
2023/07/16 02:20:25;;;;;;;7.80;2.10;;;17.70;99.90;;;;;;4973662;28;20215;-86
2023/07/16 02:22:51;;;;;;;4.27;2.13;;;17.70;99.90;;;;;;4957219;28;20569;-85
2023/07/16 02:25:17;;;;;;;3.87;2.43;;;17.60;99.90;;;;;;4989731;28;20308;-85
2023/07/16 02:27:43;;;;;;;7.40;2.73;;;17.60;99.90;;;;;;4973532;28;20208;-85
2023/07/16 02:30:09;;;;;;;5.67;2.47;;;17.60;99.90;;;;;;4989828;28;20365;-85
2023/07/16 02:32:35;;;;;;;1.87;1.70;;;17.60;99.90;;;;;;4973918;28;20188;-85
2023/07/16 02:35:02;;;;;;;2.13;1.50;;;17.70;99.90;;;;;;4989431;28;20243;-86
2023/07/16 02:37:29;;;;;;;5.13;2.97;;;17.70;99.90;;;;;;4973439;28;20228;-85
2023/07/16 02:39:54;;;;;;;7.37;3.00;;;17.70;99.90;;;;;;4973287;28;20261;-85
2023/07/16 02:42:20;;;;;;;2.70;2.13;;;17.80;99.90;;;;;;4989800;28;20550;-86
2023/07/16 02:44:46;;;;;;;4.00;2.00;;;17.80;99.90;;;;;;4958231;28;20216;-85
2023/07/16 02:47:12;;;;;;;3.87;2.30;;;17.80;99.90;;;;;;4957104;28;20562;-85
2023/07/16 02:49:38;;;;;;;3.27;2.07;;;17.70;99.90;;;;;;4973262;28;20728;-86
2023/07/16 02:52:05;;;;;;;6.00;2.53;;;17.60;99.90;;;;;;4971023;28;20271;-85
2023/07/16 02:54:31;;;;;;;6.00;2.67;;;17.50;99.90;;;;;;4989888;28;20228;-87
2023/07/16 02:56:56;;;;;;;3.23;1.57;;;17.40;99.90;;;;;;4957721;28;20275;-86
2023/07/16 02:59:22;;;;;;;5.87;2.73;;;17.40;99.90;;;;;;4956791;28;20215;-85
2023/07/16 03:01:48;;;;;;;4.73;1.90;;;17.40;99.90;;;;;;4956888;28;20228;-84
2023/07/16 03:04:13;;;;;;;4.57;2.07;;;17.40;99.90;;;;;;4972763;28;20800;-85
2023/07/16 03:06:39;;;;;;;4.43;2.17;;;17.30;99.90;;;;;;4972834;28;20673;-86
2023/07/16 03:09:05;;;;;;;2.77;1.90;;;17.30;99.90;;;;;;4957201;28;20187;-87
2023/07/16 03:11:31;;;;;;;5.00;2.07;;;17.40;99.90;;;;;;4973813;28;20238;-86
2023/07/16 03:13:56;;;;;;;9.57;2.50;;;17.30;99.90;;;;;;4957156;28;20216;-85
2023/07/16 03:16:22;;;;;;;6.03;3.10;;;17.30;99.90;;;;;;4956731;28;20219;-86
2023/07/16 03:18:48;;;;;;;8.50;1.57;;;17.20;99.90;;;;;;4972731;28;20216;-85
2023/07/16 03:21:14;;;;;;;7.37;2.50;;;17.10;99.90;;;;;;4972965;28;20632;-85
2023/07/16 03:23:39;;;;;;;10.87;2.30;;;17.10;99.90;;;;;;4990298;28;20196;-85
2023/07/16 03:26:05;;;;;;;10.87;3.07;;;17.10;99.90;;;;;;4989911;28;20260;-86
2023/07/16 03:28:31;;;;;;;4.17;2.40;;;17.10;99.90;;;;;;4989330;28;20522;-85
2023/07/16 03:30:57;;;;;;;7.67;2.37;;;17.10;99.90;;;;;;4972658;28;20222;-84
2023/07/16 03:33:22;;;;;;;5.27;1.87;;;17.10;99.90;;;;;;4972202;28;20240;-84
2023/07/16 03:35:49;;;;;;;4.90;2.63;;;17.10;99.90;;;;;;4989789;28;20278;-84
2023/07/16 03:38:15;;;;;;;5.07;2.70;;;17.10;99.90;;;;;;4972569;28;20227;-85
2023/07/16 03:40:47;;;;;;;6.43;2.33;;;17.10;99.90;;;;;;4989188;28;20220;-85
2023/07/16 03:43:14;;;;;;;9.17;2.97;;;17.10;99.90;;;;;;4988468;28;20238;-86
2023/07/16 03:45:39;;;;;;;6.73;2.83;;;17.10;99.90;;;;;;4988984;28;20322;-85
2023/07/16 03:48:05;;;;;;;8.90;2.80;;;17.10;99.90;;;;;;4972368;28;20267;-85
2023/07/16 03:50:31;;;;;;;5.77;2.20;;;17.10;99.90;;;;;;4972605;28;20180;-85
2023/07/16 03:52:57;;;;;;;10.70;2.50;;;17.10;99.90;;;;;;4988429;28;20212;-83
2023/07/16 03:55:23;;;;;;;6.63;2.47;;;17.20;99.90;;;;;;4956232;28;20227;-86
2023/07/16 03:57:48;;;;;;;7.03;2.73;;;17.20;99.90;;;;;;4971344;28;20366;-85
2023/07/16 04:00:14;;;;;;;7.53;3.80;;;17.20;99.90;;;;;;4987394;28;20804;-85
2023/07/16 04:02:40;;;;;;;9.50;2.47;;;17.20;99.90;;;;;;4955371;28;20176;-86
2023/07/16 04:05:06;;;;;;;6.93;3.37;;;17.20;99.90;;;;;;4974365;28;20307;-85
2023/07/16 04:07:32;;;;;;;10.17;3.03;;;17.20;99.90;;;;;;4991048;28;20226;-85
2023/07/16 04:09:58;;;;;;;8.57;2.50;;;17.20;99.90;;;;;;4974842;28;20299;-86
2023/07/16 04:12:24;;;;;;;4.33;2.37;;;17.20;99.90;;;;;;4992266;28;20640;-86
2023/07/16 04:14:54;;;;;;;17.17;3.23;;;17.20;99.90;;;;;;4992605;28;20219;-85
2023/07/16 04:17:21;;;;;;;5.57;3.20;;;17.30;99.90;;;;;;4974733;28;20567;-85
2023/07/16 04:19:46;;;;;;;7.30;2.83;;;17.30;99.90;;;;;;4991536;28;20227;-85
2023/07/16 04:22:12;;;;;;;10.43;3.50;;;17.40;99.90;;;;;;4974571;28;20231;-85
2023/07/16 04:24:38;;;;;;;3.50;2.10;;;17.40;99.90;;;;;;4958433;28;20231;-85
2023/07/16 04:27:04;;;;;;;3.37;2.47;;;17.50;99.90;;;;;;4959523;28;20783;-84
2023/07/16 04:29:29;;;;;;;5.13;3.00;;;17.50;99.90;;;;;;4976100;28;20286;-86
2023/07/16 04:31:55;;;;;;;6.63;2.70;;;17.60;99.90;;;;;;4959069;28;20944;-85
2023/07/16 04:34:21;;;;;;;7.37;2.83;;;17.60;99.90;;;;;;4974378;28;20251;-86
2023/07/16 04:36:47;;;;;;;6.47;2.97;;;17.60;99.90;;;;;;4990595;28;20271;-85
2023/07/16 04:39:13;;;;;;;6.40;2.90;;;17.60;99.90;;;;;;4975178;28;20605;-86
2023/07/16 04:41:38;;;;;;;7.60;3.13;;;17.60;99.90;;;;;;4976239;28;20738;-85
2023/07/16 04:44:05;;;;;;;7.50;2.20;;;17.60;99.90;;;;;;4992445;28;20448;-85
2023/07/16 04:46:31;;;;;;;13.70;3.20;;;17.60;99.90;;;;;;4992691;28;20697;-87
2023/07/16 04:48:56;;;;;;;5.93;2.47;;;17.50;99.90;;;;;;4975356;28;20252;-87
2023/07/16 04:51:22;;;;;;;7.07;2.67;;;17.30;99.90;;;;;;4975626;28;20291;-86
2023/07/16 04:53:49;;;;;;;7.47;2.20;;;17.00;99.90;;;;;;4992934;28;20176;-85
2023/07/16 04:56:16;;;;;;;7.00;2.60;;;16.80;99.90;;;;;;4974522;28;20231;-86
2023/07/16 04:58:42;;;;;;;12.03;3.77;;;16.80;99.90;;;;;;4992061;28;20220;-86
2023/07/16 05:01:09;;;;;;;8.77;2.50;;;16.80;99.90;;;;;;4975014;28;20216;-85
2023/07/16 05:03:35;;;;;;;6.53;3.33;;;16.80;99.90;;;;;;4990766;28;20318;-86
2023/07/16 05:06:02;;;;;;;4.50;2.47;;;16.80;99.90;;;;;;4992651;28;20569;-86
2023/07/16 05:08:27;;;;;;;5.13;2.77;;;16.90;99.90;;;;;;4974695;28;20204;-84
2023/07/16 05:10:54;;;;;;;7.37;2.70;;;16.90;99.90;;;;;;4958443;28;20270;-84
2023/07/16 05:13:20;;;;;;;16.97;2.73;;;17.10;99.90;;;;;;4974463;28;20306;-84
2023/07/16 05:15:45;;;;;;;7.70;2.67;;;17.20;99.90;;;;;;4956937;28;20295;-86
2023/07/16 05:18:11;;;;;;;10.10;2.33;;;17.30;99.90;;;;;;4973643;28;20232;-85
2023/07/16 05:20:37;;;;;;;7.90;2.03;;;17.40;99.90;;;;;;4973608;28;20550;-84
2023/07/16 05:23:02;;;;;;;11.17;2.10;;;17.40;99.90;;;;;;4973282;28;20761;-85
2023/07/16 05:25:28;;;;;;;7.43;2.40;;;17.50;99.90;;;;;;4973040;28;20640;-85
2023/07/16 05:27:55;;;;;;;3.67;2.57;;;17.50;99.90;;;;;;4972568;28;20231;-86
2023/07/16 05:30:21;;;;;;;5.23;2.80;;;17.60;99.90;;;;;;4972448;28;20203;-85
2023/07/16 05:32:46;;;;;;;7.53;2.73;;;17.70;99.90;;;;;;4989575;28;20176;-85
2023/07/16 05:35:12;;;;;;;3.40;2.27;;;18.10;99.90;;;;;;4956496;28;20322;-85
2023/07/16 05:37:38;;;;;;;3.07;2.23;;;18.80;99.90;;;;;;4972860;28;20315;-85
2023/07/16 05:40:05;;;;;;;6.83;3.23;;;19.30;99.90;;;;;;4956938;28;20359;-85
2023/07/16 05:42:31;;;;;;;9.67;3.33;;;19.10;99.90;;;;;;4957574;28;20854;-86
2023/07/16 05:44:57;;;;;;;4.80;2.53;;;18.70;99.90;;;;;;4990841;28;20295;-85
2023/07/16 05:47:23;;;;;;;8.93;3.07;;;19.10;99.90;;;;;;4957441;28;20588;-85
2023/07/16 05:49:48;;;;;;;12.97;3.17;;;19.30;99.90;;;;;;4989878;28;20220;-84
2023/07/16 05:52:14;;;;;;;8.60;3.20;;;18.90;99.90;;;;;;4957891;28;20219;-84
2023/07/16 05:54:40;;;;;;;8.77;3.10;;;18.50;99.90;;;;;;4991221;28;20224;-86
2023/07/16 05:57:06;;;;;;;4.23;2.50;;;18.20;99.90;;;;;;4989928;28;20176;-84
2023/07/16 05:59:36;;;;;;;8.00;3.10;;;18.00;99.90;;;;;;4958126;28;20212;-85
2023/07/16 06:02:01;;;;;;;10.53;3.43;;;17.90;99.90;;;;;;4973258;28;20704;-86
2023/07/16 06:04:27;;;;;;;5.43;2.50;;;18.00;99.90;;;;;;4957269;28;20224;-85
2023/07/16 06:06:53;;;;;;;2.30;2.13;;;18.00;99.90;;;;;;4973483;28;20223;-85
2023/07/16 06:09:19;;;;;;;6.43;2.60;;;18.00;99.90;;;;;;4973474;28;20212;-86
2023/07/16 06:11:48;;;;;;;3.27;2.30;;;17.90;99.90;;;;;;4958148;28;20184;-85
2023/07/16 06:14:14;;;;;;;5.50;2.23;;;17.80;99.90;;;;;;4973519;28;20740;-85
2023/07/16 06:16:40;;;;;;;6.20;2.10;;;17.80;99.90;;;;;;4973124;28;20224;-86
2023/07/16 06:19:06;;;;;;;6.03;3.03;;;17.70;99.90;;;;;;4972644;28;20228;-85
2023/07/16 06:21:32;;;;;;;7.60;2.77;;;17.80;99.90;;;;;;4989927;28;20266;-86
2023/07/16 06:23:58;;;;;;;5.87;2.30;;;18.10;99.90;;;;;;4973628;28;20419;-87
2023/07/16 06:26:24;;;;;;;8.37;2.37;;;19.60;99.90;;;;;;4972458;28;20261;-87
2023/07/16 06:28:49;;;;;;;6.30;2.57;;;19.80;99.90;;;;;;4990465;28;20220;-85
2023/07/16 06:31:16;;;;;;;6.93;3.10;;;19.50;99.90;;;;;;4956888;28;20224;-85
2023/07/16 06:33:42;;;;;;;5.03;1.90;;;19.10;99.90;;;;;;4989518;28;20235;-86
2023/07/16 06:36:08;;;;;;;5.87;2.40;;;18.50;99.90;;;;;;4956803;28;20195;-87
2023/07/16 06:38:34;;;;;;;8.03;3.63;;;18.10;99.90;;;;;;4974722;28;20199;-88
2023/07/16 06:41:00;;;;;;;10.63;2.93;;;17.80;99.90;;;;;;4973962;28;20570;-88
2023/07/16 06:43:25;;;;;;;9.43;3.50;;;17.60;99.90;;;;;;4973974;28;20237;-88
2023/07/16 06:45:51;;;;;;;6.67;2.53;;;18.20;99.90;;;;;;4957140;28;20223;-88
2023/07/16 06:48:18;;;;;;;12.70;3.37;;;18.00;99.90;;;;;;4973688;28;20175;-86
2023/07/16 06:50:44;;;;;;;6.53;2.67;;;17.80;99.90;;;;;;4973562;28;20180;-87
2023/07/16 06:53:09;;;;;;;5.63;3.13;;;17.50;99.90;;;;;;4990160;28;20254;-86
2023/07/16 06:55:36;;;;;;;5.43;2.37;;;17.40;99.90;;;;;;4956498;28;20227;-86
2023/07/16 06:58:02;;;;;;;3.97;2.43;;;17.40;99.90;;;;;;4956103;28;20227;-87
2023/07/16 07:00:29;;;;;;;5.07;2.43;;;17.30;99.90;;;;;;4973444;28;20266;-86
2023/07/16 07:02:55;;;;;;;4.03;2.23;;;17.20;99.90;;;;;;4990629;28;20661;-89
2023/07/16 07:05:21;;;;;;;6.40;3.37;;;17.20;99.90;;;;;;4989693;28;20232;-86
2023/07/16 07:07:47;;;;;;;4.27;1.90;;;17.10;99.90;;;;;;4972805;28;20736;-89
2023/07/16 07:10:13;;;;;;;3.20;2.87;;;17.20;99.90;;;;;;4972444;28;20208;-87
2023/07/16 07:12:39;;;;;;;9.07;2.77;;;17.20;99.90;;;;;;4972712;28;20343;-86
2023/07/16 07:15:06;;;;;;;8.87;3.47;;;17.40;99.90;;;;;;4973107;28;20180;-89
2023/07/16 07:17:32;;;;;;;6.03;2.37;;;17.70;99.90;;;;;;4991047;28;20176;-85
2023/07/16 07:19:58;;;;;;;6.17;2.87;;;18.20;99.90;;;;;;4988975;28;20579;-89
2023/07/16 07:22:24;;;;;;;7.40;3.57;;;18.40;99.90;;;;;;4989684;28;20222;-89
2023/07/16 07:24:50;;;;;;;8.07;2.33;;;18.50;99.90;;;;;;4972742;28;20330;-88
2023/07/16 07:27:16;;;;;;;12.57;2.40;;;18.70;99.90;;;;;;4940718;28;20312;-87
2023/07/16 07:29:42;;;;;;;8.03;3.03;;;19.50;99.90;;;;;;4957296;28;20213;-86
2023/07/16 07:32:08;;;;;;;6.27;2.50;;;20.80;99.90;;;;;;4956527;28;20241;-87
2023/07/16 07:34:34;;;;;;;5.50;1.90;;;21.10;99.90;;;;;;4972571;28;20235;-87
2023/07/16 07:36:59;;;;;;;11.00;2.53;;;22.00;99.90;;;;;;4956722;28;20221;-85
2023/07/16 07:39:25;;;;;;;4.90;2.27;;;22.80;99.90;;;;;;4972389;28;20227;-87
2023/07/16 07:41:51;;;;;;;4.33;1.77;;;23.30;99.90;;;;;;4991152;28;20235;-88
2023/07/16 07:44:17;;;;;;;9.67;2.47;;;22.50;99.90;;;;;;4949166;28;20265;-86
2023/07/16 07:46:43;;;;;;;11.43;2.43;;;22.80;99.90;;;;;;4972491;28;20239;-85
2023/07/16 07:49:08;;;;;;;7.93;1.53;;;23.30;99.90;;;;;;4988096;28;20212;-89
2023/07/16 07:51:34;;;;;;;11.93;2.37;;;22.00;99.90;;;;;;4956258;28;20654;-89
2023/07/16 07:54:00;;;;;;;8.97;2.20;;;21.60;99.90;;;;;;4973252;28;20217;-88
2023/07/16 07:56:26;;;;;;;4.90;2.58;;;21.20;99.90;;;;;;4988025;28;20219;-84
2023/07/16 07:58:52;;;;;;;5.60;2.60;;;20.50;99.90;;;;;;4971957;28;20226;-86
2023/07/16 08:01:17;;;;;;;5.23;2.40;;;20.90;99.90;;;;;;4972108;28;20227;-88
2023/07/16 08:03:43;;;;;;;4.60;3.00;;;21.80;99.90;;;;;;4972401;28;20211;-88
2023/07/16 08:06:11;;;;;;;2.87;1.80;;;22.40;99.90;;;;;;4972011;28;20729;-88
2023/07/16 08:08:37;;;;;;;2.63;1.97;;;22.80;99.90;;;;;;4958008;28;20180;-88
2023/07/16 08:11:12;;;;;;;4.22;2.42;;;22.90;99.90;;;;;;4988595;28;20216;-89
2023/07/16 08:13:38;;;;;;;3.13;1.77;;;23.20;99.90;;;;;;4972656;28;20220;-89
2023/07/16 08:16:04;;;;;;;8.07;2.33;;;22.70;99.90;;;;;;4987799;28;20449;-89
2023/07/16 08:18:29;;;;;;;4.10;2.10;;;21.30;99.90;;;;;;4987921;28;20218;-84
2023/07/16 08:20:55;;;;;;;5.00;2.40;;;20.80;99.90;;;;;;4956046;28;20177;-87
2023/07/16 08:23:21;;;;;;;4.50;2.50;;;20.20;99.90;;;;;;4988566;28;20227;-88
2023/07/16 08:25:47;;;;;;;9.30;2.57;;;20.50;99.90;;;;;;4972128;28;20381;-87
2023/07/16 08:28:12;;;;;;;8.70;2.80;;;21.70;99.90;;;;;;4956188;28;20208;-87
2023/07/16 08:30:38;;;;;;;10.15;3.00;;;22.50;99.90;;;;;;4972260;28;20235;-87
2023/07/16 08:33:04;;;;;;;3.53;2.05;;;23.20;99.90;;;;;;4971794;28;21071;-85
2023/07/16 08:35:30;;;;;;;4.25;2.30;;;23.80;99.90;;;;;;4989236;28;20188;-88
2023/07/16 08:37:56;;;;;;;6.18;1.95;;;23.50;99.90;;;;;;4955577;28;20240;-89
2023/07/16 08:40:22;;;;;;;5.95;2.25;;;22.70;99.90;;;;;;4971520;28;20223;-86
2023/07/16 08:42:49;;;;;;;10.43;2.70;;;22.70;99.90;;;;;;4955789;28;20351;-86
2023/07/16 08:45:18;;;;;;;4.80;2.22;;;23.40;99.90;;;;;;4971549;28;20208;-88
2023/07/16 08:47:47;;;;;;;2.95;1.90;;;23.60;99.90;;;;;;4972511;28;20571;-86
2023/07/16 08:50:13;;;;;;;4.55;1.92;;;22.80;99.90;;;;;;4989605;28;20303;-88
2023/07/16 08:52:40;;;;;;;9.60;2.65;;;22.30;99.90;;;;;;4991818;28;20227;-89
2023/07/16 08:55:06;;;;;;;5.88;2.25;;;21.70;99.90;;;;;;4990632;28;20273;-89
2023/07/16 08:57:32;;;;;;;9.48;2.42;;;21.50;99.90;;;;;;4959281;28;20246;-86
2023/07/16 08:59:58;;;;;;;4.20;1.70;;;21.30;99.90;;;;;;4959857;28;20184;-87
2023/07/16 09:02:24;;;;;;;11.57;2.10;;;21.40;99.90;;;;;;4959507;28;20254;-85
2023/07/16 09:04:54;;;;;;;10.18;1.92;;;21.40;99.90;;;;;;4959176;28;20239;-89
2023/07/16 09:07:20;;;;;;;3.70;1.77;;;21.50;99.90;;;;;;4992219;28;20282;-88
2023/07/16 09:09:59;;;;;;;10.18;1.33;;;22.40;99.90;;;;;;4991997;28;20302;-86
2023/07/16 09:12:25;;;;;;;4.83;1.40;;;22.60;99.90;;;;;;4974147;28;20211;-86
2023/07/16 09:14:51;;;;;;;1.23;0.90;;;21.80;99.90;;;;;;4974798;28;20184;-87
2023/07/16 09:17:24;;;;;;;2.60;1.63;;;21.60;99.90;;;;;;4958339;28;20327;-86
2023/07/16 09:19:51;;;;;;;3.73;1.73;;;21.10;99.90;;;;;;4974052;28;20224;-85
2023/07/16 09:22:20;;;;;;;4.17;1.60;;;21.00;99.90;;;;;;4973784;28;20215;-86
2023/07/16 09:24:47;;;;;;;15.60;2.33;;;21.40;99.90;;;;;;4958079;28;20236;-86
2023/07/16 09:27:14;;;;;;;3.65;2.33;;;22.90;99.90;;;;;;4973987;28;20212;-86
2023/07/16 09:29:40;;;;;;;6.18;2.03;;;23.20;99.90;;;;;;4992317;28;20270;-89
2023/07/16 09:32:06;;;;;;;6.88;3.13;;;23.30;99.90;;;;;;4974352;28;20721;-86
2023/07/16 09:34:32;;;;;;;3.05;2.45;;;22.10;99.90;;;;;;4973318;28;20897;-84
2023/07/16 09:36:59;;;;;;;10.10;3.07;;;21.40;99.90;;;;;;4973972;28;20251;-88
2023/07/16 09:39:26;;;;;;;7.30;3.13;;;20.80;99.90;;;;;;4973660;28;20211;-85
2023/07/16 09:41:52;;;;;;;8.47;2.80;;;20.40;99.90;;;;;;4975261;28;20203;-86
2023/07/16 09:44:19;;;;;;;11.67;3.13;;;20.70;99.90;;;;;;4973402;28;20218;-85
2023/07/16 09:46:46;;;;;;;5.57;3.00;;;20.60;99.90;;;;;;4973147;28;20303;-83
2023/07/16 09:49:14;;;;;;;8.93;3.43;;;20.70;99.90;;;;;;4974009;28;20223;-86
2023/07/16 09:51:40;;;;;;;6.80;3.00;;;20.20;99.90;;;;;;4991707;28;20323;-88
2023/07/16 09:54:06;;;;;;;7.87;3.80;;;20.30;99.90;;;;;;4975001;28;20184;-87
2023/07/16 09:56:37;;;;;;;9.50;3.63;;;21.00;99.90;;;;;;4990956;28;20248;-86
2023/07/16 09:59:09;;;;;;;8.07;2.63;;;21.50;99.90;;;;;;4990346;28;20291;-87
2023/07/16 10:01:40;;;;;;;9.20;3.13;;;21.60;99.90;;;;;;4972981;28;20247;-85
2023/07/16 10:04:14;;;;;;;4.30;1.80;;;20.90;99.90;;;;;;4972938;28;20216;-86
2023/07/16 10:06:49;;;;;;;3.77;1.80;;;21.60;99.90;;;;;;4957049;28;20234;-86
2023/07/16 10:09:31;;;;;;;8.10;2.03;;;22.90;99.90;;;;;;4972531;28;20247;-85
2023/07/16 10:12:17;;;;;;;6.43;1.73;;;23.60;99.90;;;;;;4959964;28;20260;-85
2023/07/16 10:14:57;;;;;;;3.85;2.05;;;23.20;99.90;;;;;;4957536;28;20262;-90
2023/07/16 10:17:25;;;;;;;6.13;1.92;;;23.60;99.90;;;;;;4974205;28;20224;-87
2023/07/16 10:20:05;;;;;;;4.68;1.65;;;23.80;99.90;;;;;;4973575;28;20220;-87
2023/07/16 10:22:39;;;;;;;4.70;1.55;;;23.70;99.90;;;;;;4991198;28;20220;-87
2023/07/16 10:25:31;;;;;;;6.80;2.00;;;22.60;99.90;;;;;;4958524;28;20235;-88
2023/07/16 10:27:57;;;;;;;6.43;2.30;;;22.40;99.90;;;;;;4955235;28;20223;-88
2023/07/16 10:30:23;;;;;;;5.07;1.25;;;22.10;99.90;;;;;;4973707;28;20219;-88
2023/07/16 10:32:52;;;;;;;4.85;1.90;;;21.40;99.90;;;;;;4958327;28;20207;-86
2023/07/16 10:35:21;;;;;;;1.83;1.45;;;21.60;99.90;;;;;;4990393;28;20236;-87
2023/07/16 10:37:47;;;;;;;5.32;1.98;;;21.40;99.90;;;;;;4972184;28;20299;-87
2023/07/16 10:40:14;;;;;;;11.57;2.55;;;21.60;99.90;;;;;;4990872;28;20280;-87
2023/07/16 10:42:46;;;;;;;2.88;1.95;;;21.60;99.90;;;;;;4973691;28;20226;-87
2023/07/16 10:45:12;;;;;;;3.37;1.60;;;21.50;99.90;;;;;;4972876;28;20310;-88
2023/07/16 10:47:40;;;;;;;5.10;2.07;;;20.90;99.90;;;;;;4990539;28;20180;-86
2023/07/16 10:50:08;;;;;;;2.33;1.60;;;20.60;99.90;;;;;;4989493;28;20295;-87
2023/07/16 10:52:35;;;;;;;4.80;2.13;;;20.10;99.90;;;;;;4973039;28;20267;-88
2023/07/16 10:55:01;;;;;;;5.07;2.27;;;20.10;99.90;;;;;;4972860;28;20681;-87
2023/07/16 10:57:27;;;;;;;10.67;2.20;;;20.10;99.90;;;;;;4972561;28;20238;-84
2023/07/16 10:59:55;;;;;;;4.80;2.67;;;19.90;99.90;;;;;;4957196;28;20626;-86
2023/07/16 11:02:23;;;;;;;10.83;3.20;;;19.90;99.90;;;;;;4988652;28;20227;-89
2023/07/16 11:04:49;;;;;;;4.57;2.37;;;20.50;99.90;;;;;;4972304;28;20243;-87
2023/07/16 11:07:16;;;;;;;3.77;2.00;;;20.60;99.90;;;;;;4971256;28;20220;-84
2023/07/16 11:09:48;;;;;;;5.37;1.90;;;20.60;99.90;;;;;;4971441;28;20248;-87
2023/07/16 11:12:16;;;;;;;6.63;2.13;;;20.70;99.90;;;;;;4989032;28;20182;-86
2023/07/16 11:14:47;;;;;;;2.77;1.80;;;20.40;99.90;;;;;;4989581;28;20251;-86
2023/07/16 11:17:14;;;;;;;2.93;1.90;;;20.90;99.90;;;;;;4988310;28;20790;-85
2023/07/16 11:19:44;;;;;;;6.90;1.63;;;21.10;99.90;;;;;;4972198;28;20219;-84
2023/07/16 11:22:10;;;;;;;10.07;1.87;;;21.00;99.90;;;;;;4989636;28;20238;-84
2023/07/16 11:24:43;;;;;;;6.97;1.73;;;21.50;99.90;;;;;;4989590;28;20211;-87
2023/07/16 11:27:29;;;;;;;5.77;1.57;;;21.80;99.90;;;;;;4971459;28;20180;-86
2023/07/16 11:30:00;;;;;;;4.77;2.03;;;21.90;99.90;;;;;;4972172;28;20196;-85
2023/07/16 11:32:48;;;;;;;6.50;1.47;;;21.40;99.90;;;;;;4955848;28;20212;-85
2023/07/16 11:35:18;;;;;;;6.17;1.60;;;21.00;99.90;;;;;;4956021;28;20322;-85
2023/07/16 11:37:44;;;;;;;7.33;1.67;;;20.70;99.90;;;;;;4955978;28;20701;-86
2023/07/16 11:40:15;;;;;;;2.83;1.17;;;20.50;99.90;;;;;;4971110;28;20224;-83
2023/07/16 11:42:44;;;;;;;13.33;1.80;;;21.20;99.90;;;;;;4988644;28;20234;-83
2023/07/16 11:45:20;;;;;;;6.80;1.30;;;21.40;99.90;;;;;;4971406;28;20208;-84
2023/07/16 11:47:46;;;;;;;22.87;1.73;;;21.40;99.90;;;;;;4972009;28;20183;-87
2023/07/16 11:50:13;;;;;;;4.20;1.95;;;21.50;99.90;;;;;;4969682;28;20220;-85
2023/07/16 11:52:39;;;;;;;5.30;1.47;;;21.10;99.90;;;;;;4969349;28;20228;-85
2023/07/16 11:55:08;;;;;;;5.00;1.15;;;21.00;99.90;;;;;;4968454;28;20364;-85
2023/07/16 11:57:35;;;;;;;8.37;1.77;;;21.20;99.90;;;;;;4978723;28;20823;-87
2023/07/16 12:00:03;;;;;;;4.27;1.03;;;21.50;99.90;;;;;;4988305;28;20180;-84
2023/07/16 12:02:34;;;;;;;4.43;1.92;;;21.60;99.90;;;;;;4966821;28;20204;-86
2023/07/16 12:05:12;;;;;;;6.75;1.42;;;21.40;99.90;;;;;;4949650;28;20258;-87
2023/07/16 12:07:44;;;;;;;12.17;1.43;;;21.30;99.90;;;;;;4955225;28;20349;-85
2023/07/16 12:10:10;;;;;;;5.47;1.48;;;21.10;99.90;;;;;;4967188;28;20223;-85
2023/07/16 12:12:50;;;;;;;2.23;1.50;;;21.10;99.90;;;;;;4968970;28;20311;-86
2023/07/16 12:15:18;;;;;;;3.80;1.20;;;20.90;99.90;;;;;;4945457;28;20263;-84
2023/07/16 12:17:44;;;;;;;12.07;2.30;;;20.40;99.90;;;;;;5000722;28;20184;-85
2023/07/16 12:20:15;;;;;;;6.13;2.13;;;20.40;99.90;;;;;;4984651;28;20223;-84
2023/07/16 12:22:41;;;;;;;3.40;1.33;;;20.10;99.90;;;;;;4952777;28;20220;-87
2023/07/16 12:25:14;;;;;;;8.93;1.97;;;19.90;99.90;;;;;;4971336;28;20231;-86
2023/07/16 12:27:40;;;;;;;7.50;1.43;;;19.60;99.90;;;;;;4978486;28;20238;-84
2023/07/16 12:30:07;;;;;;;3.70;1.10;;;19.50;99.90;;;;;;4954947;28;20575;-85
2023/07/16 12:32:33;;;;;;;8.27;1.80;;;19.20;99.90;;;;;;4973221;28;20232;-85
2023/07/16 12:35:00;;;;;;;4.70;1.10;;;19.20;99.90;;;;;;4987647;28;20231;-86
2023/07/16 12:37:26;;;;;;;3.00;1.37;;;19.60;99.90;;;;;;4972405;28;20232;-86
2023/07/16 12:39:52;;;;;;;3.17;1.23;;;19.80;99.90;;;;;;4956619;28;20299;-87
2023/07/16 12:42:18;;;;;;;1.97;1.07;;;20.00;99.90;;;;;;4954879;28;20300;-86
2023/07/16 12:44:43;;;;;;;2.50;1.60;;;20.30;99.90;;;;;;4973638;28;20607;-87
2023/07/16 12:47:09;;;;;;;13.40;1.70;;;20.70;99.90;;;;;;4972192;28;20216;-86